createdAt,value
2023-04-25T00:02:25.891Z,11.29
2023-04-25T00:07:27.781Z,11.29
2023-04-25T00:12:29.775Z,11.30
2023-04-25T00:17:32.552Z,11.29
2023-04-25T00:22:35.792Z,11.25
2023-04-25T00:27:37.891Z,11.17
2023-04-25T00:32:39.780Z,11.11
2023-04-25T00:37:41.657Z,11.04
2023-04-25T00:42:43.435Z,10.96
2023-04-25T00:47:45.634Z,10.89
2023-04-25T00:52:48.061Z,10.84
2023-04-25T00:57:51.953Z,10.81
2023-04-25T01:02:54.070Z,10.77
2023-04-25T01:07:56.078Z,10.74
2023-04-25T01:12:57.800Z,10.70
2023-04-25T01:18:02.061Z,10.63
2023-04-25T01:23:04.556Z,10.55
2023-04-25T01:28:06.831Z,10.45
2023-04-25T01:33:09.708Z,10.41
2023-04-25T01:38:13.172Z,10.37
2023-04-25T01:43:15.552Z,10.35
2023-04-25T01:48:17.456Z,10.31
2023-04-25T01:53:19.800Z,10.27
2023-04-25T01:58:22.052Z,10.17
2023-04-25T02:03:37.156Z,10.10
2023-04-25T02:08:42.390Z,10.04
2023-04-25T02:13:45.948Z,9.96
2023-04-25T02:18:55.067Z,9.87
2023-04-25T02:23:56.860Z,9.81
2023-04-25T02:28:58.651Z,9.73
2023-04-25T02:34:00.450Z,9.66
2023-04-25T02:39:04.247Z,9.60
2023-04-25T02:44:06.236Z,9.54
2023-04-25T02:49:08.109Z,9.51
2023-04-25T02:54:10.196Z,9.47
2023-04-25T02:59:14.474Z,9.41
2023-04-25T03:04:16.360Z,9.38
2023-04-25T03:09:18.205Z,9.36
2023-04-25T03:14:20.419Z,9.35
2023-04-25T03:19:22.226Z,9.31
2023-04-25T03:24:23.987Z,9.32
2023-04-25T03:29:27.518Z,9.31
2023-04-25T03:34:30.732Z,9.28
2023-04-25T03:39:32.667Z,9.22
2023-04-25T03:44:34.610Z,9.19
2023-04-25T03:49:37.214Z,9.21
2023-04-25T03:54:40.846Z,9.22
2023-04-25T03:59:49.089Z,9.20
2023-04-25T04:04:51.530Z,9.23
2023-04-25T04:09:53.511Z,9.25
2023-04-25T04:15:02.982Z,9.28
2023-04-25T04:20:06.891Z,9.33
2023-04-25T04:25:09.326Z,9.38
2023-04-25T04:30:32.026Z,9.42
2023-04-25T04:35:37.150Z,9.49
2023-04-25T04:40:39.227Z,9.57
2023-04-25T04:45:52.404Z,9.64
2023-04-25T04:51:08.241Z,9.68
2023-04-25T04:56:26.385Z,9.82
2023-04-25T05:01:47.781Z,9.95
2023-04-25T05:07:08.228Z,10.04
2023-04-25T05:12:15.665Z,10.13
2023-04-25T05:17:36.529Z,10.21
2023-04-25T05:23:01.113Z,10.30
2023-04-25T05:28:18.192Z,10.33
2023-04-25T05:33:35.303Z,10.41
2023-04-25T05:38:37.186Z,10.52
2023-04-25T05:43:58.412Z,10.59
2023-04-25T05:49:06.729Z,10.61
2023-04-25T05:54:18.518Z,10.61
2023-04-25T05:59:21.184Z,10.63
2023-04-25T06:04:23.508Z,10.65
2023-04-25T06:09:25.676Z,10.69
2023-04-25T06:14:29.743Z,10.79
2023-04-25T06:19:31.688Z,10.83
2023-04-25T06:24:33.747Z,10.91
2023-04-25T06:29:38.380Z,11.01
2023-04-25T06:34:40.169Z,11.07
2023-04-25T06:39:42.231Z,11.11
2023-04-25T06:44:43.963Z,11.26
2023-04-25T06:49:46.085Z,11.45
2023-04-25T06:54:48.449Z,11.56
2023-04-25T07:00:20.377Z,11.61
2023-04-25T07:05:22.256Z,11.65
2023-04-25T07:10:24.200Z,11.75
2023-04-25T07:15:26.725Z,11.84
2023-04-25T07:20:28.800Z,12.07
2023-04-25T07:25:31.798Z,12.40
2023-04-25T07:30:35.875Z,12.79
2023-04-25T07:35:39.138Z,13.21
2023-04-25T07:40:41.149Z,13.63
2023-04-25T07:45:45.501Z,14.06
2023-04-25T07:50:47.526Z,14.49
2023-04-25T07:55:49.916Z,14.77
2023-04-25T08:00:53.324Z,15.08
2023-04-25T08:06:21.170Z,15.32
2023-04-25T08:11:30.254Z,15.70
2023-04-25T08:16:32.536Z,16.20
2023-04-25T08:21:34.895Z,16.53
2023-04-25T08:26:40.250Z,16.85
2023-04-25T08:31:42.641Z,17.19
2023-04-25T08:36:44.805Z,17.40
2023-04-25T08:41:55.333Z,17.59
2023-04-25T08:46:58.360Z,17.80
2023-04-25T08:52:07.453Z,17.87
2023-04-25T08:57:10.220Z,18.02
2023-04-25T09:02:17.906Z,18.24
2023-04-25T09:07:22.580Z,18.25
2023-04-25T09:12:26.857Z,18.27
2023-04-25T09:17:29.968Z,18.35
2023-04-25T09:22:33.572Z,18.29
2023-04-25T09:27:35.854Z,18.03
2023-04-25T09:32:45.197Z,17.97
2023-04-25T09:37:47.034Z,17.72
2023-04-25T09:43:22.139Z,17.36
2023-04-25T09:48:26.715Z,17.23
2023-04-25T09:53:30.792Z,17.14
2023-04-25T09:58:43.557Z,16.72
2023-04-25T10:03:51.573Z,16.49
2023-04-25T10:09:08.898Z,16.40
2023-04-25T10:14:13.482Z,16.44
2023-04-25T10:19:16.313Z,16.45
2023-04-25T10:24:18.812Z,16.49
2023-04-25T10:29:25.489Z,16.34
2023-04-25T10:34:47.886Z,16.23
2023-04-25T10:39:49.598Z,16.15
2023-04-25T10:45:06.694Z,16.09
2023-04-25T10:50:12.195Z,16.13
2023-04-25T10:55:13.917Z,16.33
2023-04-25T11:00:18.386Z,16.24
2023-04-25T11:05:26.148Z,15.91
2023-04-25T11:10:29.597Z,15.88
2023-04-25T11:15:31.829Z,15.95
2023-04-25T11:20:33.834Z,16.03
2023-04-25T11:25:37.784Z,16.02
2023-04-25T11:30:41.153Z,15.96
2023-04-25T11:35:42.912Z,15.94
2023-04-25T11:40:44.597Z,15.69
2023-04-25T11:45:53.332Z,15.50
2023-04-25T11:50:56.232Z,15.41
2023-04-25T11:55:58.425Z,15.33
2023-04-25T12:01:00.714Z,15.33
2023-04-25T12:06:06.626Z,15.34
2023-04-25T12:11:21.644Z,15.28
2023-04-25T12:16:24.130Z,15.21
2023-04-25T12:21:29.474Z,15.05
2023-04-25T12:26:47.454Z,14.90
2023-04-25T12:31:54.138Z,14.78
2023-04-25T12:36:55.940Z,14.82
2023-04-25T12:41:57.576Z,14.96
2023-04-25T12:47:00.917Z,14.89
2023-04-25T12:52:03.376Z,14.77
2023-04-25T12:57:05.837Z,14.77
2023-04-25T13:02:07.911Z,14.90
2023-04-25T13:07:09.624Z,14.98
2023-04-25T13:12:11.512Z,15.11
2023-04-25T13:17:13.543Z,15.34
2023-04-25T13:22:17.752Z,15.32
2023-04-25T13:27:19.511Z,15.29
2023-04-25T13:32:21.428Z,15.25
2023-04-25T13:37:25.185Z,15.24
2023-04-25T13:42:27.312Z,15.22
2023-04-25T13:47:31.428Z,15.53
2023-04-25T13:52:33.119Z,15.94
2023-04-25T13:57:35.420Z,16.17
2023-04-25T14:02:37.655Z,16.08
2023-04-25T14:07:39.581Z,15.68
2023-04-25T14:12:41.612Z,15.16
2023-04-25T14:17:43.345Z,14.62
2023-04-25T14:22:45.499Z,14.11
2023-04-25T14:27:50.632Z,13.76
2023-04-25T14:32:52.404Z,13.70
2023-04-25T14:37:54.923Z,13.84
2023-04-25T14:42:56.713Z,14.08
2023-04-25T14:48:00.307Z,14.35
2023-04-25T14:53:02.721Z,14.55
2023-04-25T14:58:04.533Z,14.65
2023-04-25T15:03:06.620Z,14.71
2023-04-25T15:08:08.492Z,14.50
2023-04-25T15:13:11.490Z,14.19
2023-04-25T15:18:13.479Z,13.91
2023-04-25T15:23:15.336Z,13.83
2023-04-25T15:28:17.388Z,13.78
2023-04-25T15:33:19.403Z,13.78
2023-04-25T15:38:21.114Z,13.82
2023-04-25T15:43:22.846Z,13.90
2023-04-25T15:48:24.782Z,13.88
2023-04-25T15:53:26.935Z,13.67
2023-04-25T15:58:28.545Z,13.48
2023-04-25T16:03:33.770Z,13.33
2023-04-25T16:08:37.759Z,13.15
2023-04-25T16:13:39.530Z,12.98
2023-04-25T16:18:41.279Z,12.82
2023-04-25T16:23:43.773Z,12.74
2023-04-25T16:28:45.504Z,12.70
2023-04-25T16:33:47.608Z,12.68
2023-04-25T16:38:49.631Z,12.68
2023-04-25T16:43:51.605Z,12.66
2023-04-25T16:48:53.644Z,12.60
2023-04-25T16:53:56.202Z,12.43
2023-04-25T16:58:57.978Z,12.19
2023-04-25T17:04:00.236Z,11.91
2023-04-25T17:09:02.350Z,11.68
2023-04-25T17:14:04.818Z,11.52
2023-04-25T17:19:07.576Z,11.40
2023-04-25T17:24:09.975Z,11.31
2023-04-25T17:29:11.805Z,11.24
2023-04-25T17:34:17.984Z,11.16
2023-04-25T17:39:20.133Z,11.11
2023-04-25T17:44:21.998Z,11.05
2023-04-25T17:49:24.327Z,10.98
2023-04-25T17:54:26.131Z,10.90
2023-04-25T17:59:28.329Z,10.78
2023-04-25T18:04:30.157Z,10.64
2023-04-25T18:09:32.421Z,10.47
2023-04-25T18:14:35.752Z,10.27
2023-04-25T18:19:37.538Z,10.10
2023-04-25T18:24:39.190Z,9.95
2023-04-25T18:29:43.162Z,9.82
2023-04-25T18:34:46.879Z,9.70
2023-04-25T18:39:49.067Z,9.58
2023-04-25T18:44:51.494Z,9.48
2023-04-25T18:49:53.349Z,9.41
2023-04-25T18:54:55.045Z,9.39
2023-04-25T18:59:56.756Z,9.36
2023-04-25T19:04:59.061Z,9.35
2023-04-25T19:10:01.206Z,9.34
2023-04-25T19:15:03.118Z,9.34
2023-04-25T19:20:06.894Z,9.32
2023-04-25T19:25:10.984Z,9.30
2023-04-25T19:30:13.640Z,9.26
2023-04-25T19:35:15.732Z,9.23
2023-04-25T19:40:19.692Z,9.18
2023-04-25T19:45:21.786Z,9.12
2023-04-25T19:50:23.785Z,9.09
2023-04-25T19:55:26.885Z,9.11
2023-04-25T20:00:28.680Z,9.17
2023-04-25T20:05:32.300Z,9.22
2023-04-25T20:10:34.125Z,9.24
2023-04-25T20:15:36.299Z,9.23
2023-04-25T20:20:39.534Z,9.23
2023-04-25T20:25:41.287Z,9.21
2023-04-25T20:30:43.840Z,9.26
2023-04-25T20:35:46.508Z,9.30
2023-04-25T20:40:48.228Z,9.34
2023-04-25T20:45:50.800Z,9.37
2023-04-25T20:50:53.008Z,9.38
2023-04-25T20:55:54.872Z,9.36
2023-04-25T21:00:56.651Z,9.36
2023-04-25T21:05:58.516Z,9.36
2023-04-25T21:11:02.003Z,9.38
2023-04-25T21:16:06.606Z,9.36
2023-04-25T21:21:08.412Z,9.31
2023-04-25T21:26:10.220Z,9.26
2023-04-25T21:31:12.088Z,9.27
2023-04-25T21:36:13.894Z,9.25
2023-04-25T21:41:18.364Z,9.21
2023-04-25T21:46:23.640Z,9.12
2023-04-25T21:51:41.990Z,9.01
2023-04-25T21:56:43.744Z,8.91
2023-04-25T22:01:46.449Z,8.83
2023-04-25T22:06:48.289Z,8.69
2023-04-25T22:11:53.292Z,8.59
2023-04-25T22:16:56.030Z,8.52
2023-04-25T22:21:58.362Z,8.46
2023-04-25T22:27:00.563Z,8.41
2023-04-25T22:32:02.741Z,8.33
2023-04-25T22:37:04.792Z,8.21
2023-04-25T22:42:06.488Z,8.08
2023-04-25T22:47:09.040Z,7.91
2023-04-25T22:52:12.263Z,7.74
2023-04-25T22:57:14.290Z,7.59
2023-04-25T23:02:16.031Z,7.55
2023-04-25T23:07:20.063Z,7.56
2023-04-25T23:12:22.767Z,7.60
2023-04-25T23:17:28.217Z,7.63
2023-04-25T23:22:30.272Z,7.65
2023-04-25T23:27:32.351Z,7.69
2023-04-25T23:32:35.239Z,7.69
2023-04-25T23:37:38.549Z,7.69
2023-04-25T23:42:42.011Z,7.66
2023-04-25T23:47:45.803Z,7.62
2023-04-25T23:52:47.835Z,7.57
2023-04-25T23:57:49.612Z,7.53
